METAR UND TAF INFORMATION
LTFM 240820Z 23031KT CAVOK 11/M01 Q1012 NOSIG

 FLUGHAFENKARTE

 RUNWAY INFORMATION

 AIRPORT FREQUENCIES

 AIRPORT NEAR NAVIGATION AIDS